Time;durP1;ratioP1;P1;durP2;ratioP2;P2;SDS_P1;SDS_P2;PMS_P1;PMS_P2;Temp;Humidity;BMP_temperature;BMP_pressure;BME280_temperature;BME280_humidity;BME280_pressure;Samples;Min_cycle;Max_cycle;Signal;HPM_P1;HPM_P2
2023/08/09 00:00:13;;;;;;;6.05;4.40;;;15.80;99.90;;;;;;5010795;28;20109;-53
2023/08/09 00:03:01;;;;;;;6.50;4.45;;;15.80;99.90;;;;;;5004917;28;20053;-55
2023/08/09 00:05:47;;;;;;;7.45;4.20;;;15.80;99.90;;;;;;4994861;28;20030;-57
2023/08/09 00:08:33;;;;;;;8.25;4.60;;;15.80;99.90;;;;;;5010135;28;20026;-53
2023/08/09 00:11:19;;;;;;;9.30;4.95;;;15.90;99.90;;;;;;5012262;28;20018;-54
2023/08/09 00:14:05;;;;;;;11.30;4.55;;;15.90;99.90;;;;;;5009450;28;20018;-56
2023/08/09 00:16:51;;;;;;;7.13;4.70;;;15.90;99.90;;;;;;5009956;28;20491;-54
2023/08/09 00:19:37;;;;;;;6.72;4.63;;;15.90;99.90;;;;;;5011490;28;20121;-52
2023/08/09 00:22:23;;;;;;;8.63;4.45;;;15.90;99.90;;;;;;5009419;28;20510;-56
2023/08/09 00:25:13;;;;;;;7.82;4.72;;;15.90;99.90;;;;;;5010050;28;20045;-56
2023/08/09 00:27:59;;;;;;;7.43;4.60;;;15.80;99.90;;;;;;5011367;28;20398;-52
2023/08/09 00:30:46;;;;;;;6.90;4.60;;;15.90;99.90;;;;;;5005203;28;20502;-51
2023/08/09 00:33:32;;;;;;;7.50;4.72;;;15.90;99.90;;;;;;5010509;28;20125;-51
2023/08/09 00:36:18;;;;;;;7.25;4.70;;;15.90;99.90;;;;;;5005799;28;20457;-53
2023/08/09 00:39:06;;;;;;;7.38;4.80;;;15.80;99.90;;;;;;5010479;28;20030;-51
2023/08/09 00:41:52;;;;;;;7.28;4.22;;;15.80;99.90;;;;;;4997699;28;20026;-55
2023/08/09 00:44:38;;;;;;;6.35;4.53;;;15.80;99.90;;;;;;5010053;28;20414;-52
2023/08/09 00:47:24;;;;;;;6.72;4.25;;;15.80;99.90;;;;;;5011446;28;20033;-53
2023/08/09 00:50:11;;;;;;;6.60;4.35;;;15.80;99.90;;;;;;5010286;28;20030;-54
2023/08/09 00:52:58;;;;;;;6.68;4.80;;;15.80;99.90;;;;;;5010920;28;20034;-53
2023/08/09 00:55:45;;;;;;;5.72;4.40;;;15.90;99.90;;;;;;5008439;28;20029;-56
2023/08/09 00:58:31;;;;;;;8.70;4.63;;;15.80;99.90;;;;;;5010408;28;20434;-56
2023/08/09 01:01:17;;;;;;;11.20;4.53;;;15.80;99.90;;;;;;5007998;28;20041;-54
2023/08/09 01:04:03;;;;;;;6.25;4.22;;;15.70;99.90;;;;;;5010015;28;20119;-49
2023/08/09 01:06:56;;;;;;;6.72;4.30;;;15.70;99.90;;;;;;5004526;28;20057;-53
2023/08/09 01:10:10;;;;;;;7.00;4.35;;;15.60;99.90;;;;;;5010299;28;20029;-53
2023/08/09 01:13:05;;;;;;;6.90;4.20;;;15.60;99.90;;;;;;5008762;28;20083;-54
2023/08/09 01:15:52;;;;;;;8.25;4.60;;;15.60;99.90;;;;;;5009289;28;20430;-55
2023/08/09 01:18:40;;;;;;;7.55;4.53;;;15.60;99.90;;;;;;5005790;28;20091;-55
2023/08/09 01:21:29;;;;;;;6.18;4.93;;;15.60;99.90;;;;;;5007316;28;20034;-50
2023/08/09 01:24:15;;;;;;;7.10;4.20;;;15.60;99.90;;;;;;5010051;28;20038;-54
2023/08/09 01:27:01;;;;;;;7.20;4.32;;;15.60;99.90;;;;;;5010456;28;20033;-54
2023/08/09 01:29:47;;;;;;;5.97;4.00;;;15.70;99.90;;;;;;5011518;28;20388;-50
2023/08/09 01:32:34;;;;;;;6.38;4.53;;;15.60;99.90;;;;;;5011979;28;20109;-55
2023/08/09 01:35:22;;;;;;;7.10;4.15;;;15.60;99.90;;;;;;5011220;28;20160;-55
2023/08/09 01:38:13;;;;;;;6.93;4.13;;;15.60;99.90;;;;;;5011885;28;20088;-56
2023/08/09 01:41:00;;;;;;;10.15;4.50;;;15.60;99.90;;;;;;5012520;28;20026;-54
2023/08/09 01:43:47;;;;;;;6.10;4.45;;;15.60;99.90;;;;;;4991156;28;20577;-56
2023/08/09 01:46:34;;;;;;;7.63;4.50;;;15.60;99.90;;;;;;4990455;28;20077;-56
2023/08/09 01:49:22;;;;;;;5.88;4.35;;;15.50;99.90;;;;;;4999355;28;20063;-53
2023/08/09 01:52:08;;;;;;;10.50;4.57;;;15.50;99.90;;;;;;5030130;28;20029;-55
2023/08/09 01:54:54;;;;;;;6.75;4.30;;;15.50;99.90;;;;;;5030916;28;20490;-56
2023/08/09 01:57:40;;;;;;;7.80;5.03;;;15.60;99.90;;;;;;5030473;28;20469;-56
2023/08/09 02:00:27;;;;;;;7.53;4.38;;;15.60;99.90;;;;;;5030357;28;20033;-55
2023/08/09 02:03:13;;;;;;;11.13;4.80;;;15.50;99.90;;;;;;5030575;28;20030;-54
2023/08/09 02:05:59;;;;;;;6.57;4.40;;;15.50;99.90;;;;;;5030679;28;20107;-55
2023/08/09 02:08:45;;;;;;;7.15;4.60;;;15.40;99.90;;;;;;5030441;28;20109;-54
2023/08/09 02:11:31;;;;;;;6.60;4.68;;;15.40;99.90;;;;;;5030000;28;20459;-52
2023/08/09 02:14:17;;;;;;;5.63;4.00;;;15.40;99.90;;;;;;5016810;28;20034;-55
2023/08/09 02:17:03;;;;;;;6.88;4.07;;;15.50;99.90;;;;;;5012816;28;20438;-52
2023/08/09 02:19:49;;;;;;;9.05;5.28;;;15.40;99.90;;;;;;5010743;28;20442;-54
2023/08/09 02:22:39;;;;;;;9.05;5.90;;;15.40;99.90;;;;;;5011472;28;20119;-54
2023/08/09 02:25:25;;;;;;;7.50;5.82;;;15.50;99.90;;;;;;4997890;28;20080;-55
2023/08/09 02:28:11;;;;;;;7.72;4.53;;;15.50;99.90;;;;;;5010962;28;20022;-57
2023/08/09 02:30:57;;;;;;;8.90;4.97;;;15.50;99.90;;;;;;5011791;28;20475;-56
2023/08/09 02:33:43;;;;;;;7.63;4.93;;;15.50;99.90;;;;;;5013364;28;20518;-55
2023/08/09 02:36:29;;;;;;;5.60;4.22;;;15.40;99.90;;;;;;5014296;28;20041;-54
2023/08/09 02:39:15;;;;;;;7.43;4.30;;;15.40;99.90;;;;;;5014660;28;20034;-52
2023/08/09 02:42:01;;;;;;;8.85;4.60;;;15.30;99.90;;;;;;5000274;28;20030;-56
2023/08/09 02:44:47;;;;;;;7.60;5.25;;;15.40;99.90;;;;;;5013939;28;20038;-56
2023/08/09 02:47:34;;;;;;;8.38;5.53;;;15.40;99.90;;;;;;5013424;28;20613;-56
2023/08/09 02:50:20;;;;;;;9.05;4.75;;;15.30;99.90;;;;;;5025722;28;20116;-59
2023/08/09 02:53:06;;;;;;;6.97;4.70;;;15.30;99.90;;;;;;5019215;28;20033;-54
2023/08/09 02:55:52;;;;;;;7.57;5.18;;;15.20;99.90;;;;;;5033082;28;20033;-52
2023/08/09 02:58:38;;;;;;;7.38;5.10;;;15.10;99.90;;;;;;5033129;28;20057;-55
2023/08/09 03:01:24;;;;;;;10.00;5.15;;;15.10;99.90;;;;;;5018568;28;20025;-53
2023/08/09 03:04:11;;;;;;;7.03;5.35;;;15.00;99.90;;;;;;5033201;28;20092;-57
2023/08/09 03:06:57;;;;;;;9.02;5.78;;;15.00;99.90;;;;;;5033434;28;20122;-55
2023/08/09 03:09:43;;;;;;;7.07;5.50;;;14.90;99.90;;;;;;5033252;28;20418;-55
2023/08/09 03:12:29;;;;;;;8.00;5.85;;;14.90;99.90;;;;;;5033534;28;20018;-54
2023/08/09 03:15:16;;;;;;;6.80;5.60;;;14.90;99.90;;;;;;5031063;28;20030;-55
2023/08/09 03:18:02;;;;;;;10.80;6.10;;;14.80;99.90;;;;;;4999137;28;20034;-55
2023/08/09 03:20:48;;;;;;;6.43;4.88;;;14.80;99.90;;;;;;5013072;28;20034;-57
2023/08/09 03:23:35;;;;;;;8.35;5.38;;;14.80;99.90;;;;;;5013283;28;20033;-57
2023/08/09 03:26:20;;;;;;;11.38;6.40;;;14.80;99.90;;;;;;5013409;28;20029;-57
2023/08/09 03:29:06;;;;;;;9.80;6.20;;;14.80;99.90;;;;;;5013194;28;20541;-58
2023/08/09 03:31:53;;;;;;;8.65;6.90;;;14.70;99.90;;;;;;5014058;28;20101;-54
2023/08/09 03:34:39;;;;;;;8.68;6.35;;;14.70;99.90;;;;;;5013070;28;20037;-56
2023/08/09 03:37:25;;;;;;;7.68;6.10;;;14.70;99.90;;;;;;5013286;28;20088;-55
2023/08/09 03:40:12;;;;;;;7.72;6.55;;;14.70;99.90;;;;;;5012474;28;20508;-58
2023/08/09 03:42:58;;;;;;;6.90;6.00;;;14.80;99.90;;;;;;4998236;28;20173;-56
2023/08/09 03:45:44;;;;;;;8.90;7.70;;;14.70;99.90;;;;;;5012639;28;20453;-58
2023/08/09 03:48:30;;;;;;;9.50;8.40;;;14.60;99.90;;;;;;4998614;28;20445;-59
2023/08/09 03:51:16;;;;;;;9.25;7.47;;;14.50;99.90;;;;;;5012746;28;20033;-56
2023/08/09 03:54:02;;;;;;;9.52;7.82;;;14.50;99.90;;;;;;5012985;28;20026;-55
2023/08/09 03:56:48;;;;;;;6.00;5.35;;;14.50;99.90;;;;;;5012391;28;20524;-54
2023/08/09 03:59:34;;;;;;;8.50;4.60;;;14.40;99.90;;;;;;5012737;28;20040;-54
2023/08/09 04:02:20;;;;;;;5.00;4.13;;;14.40;99.90;;;;;;5012017;28;20034;-56
2023/08/09 04:05:06;;;;;;;5.78;4.70;;;14.30;99.90;;;;;;5012586;28;20053;-57
2023/08/09 04:07:52;;;;;;;7.45;4.60;;;14.20;99.90;;;;;;5012644;28;20089;-53
2023/08/09 04:10:39;;;;;;;6.38;4.43;;;14.20;99.90;;;;;;5012606;28;20109;-58
2023/08/09 04:13:25;;;;;;;6.60;4.65;;;14.20;99.90;;;;;;5012752;28;20026;-56
2023/08/09 04:16:11;;;;;;;6.78;4.75;;;14.20;99.90;;;;;;5012398;28;20522;-51
2023/08/09 04:18:57;;;;;;;5.70;4.40;;;14.20;99.90;;;;;;5011782;28;20037;-53
2023/08/09 04:21:44;;;;;;;5.65;4.13;;;14.30;99.90;;;;;;5012587;28;20037;-56
2023/08/09 04:24:30;;;;;;;5.55;4.47;;;14.40;99.90;;;;;;5012445;28;20026;-55
2023/08/09 04:27:16;;;;;;;7.10;4.60;;;14.40;99.90;;;;;;5012116;28;20030;-52
2023/08/09 04:30:04;;;;;;;10.02;5.35;;;14.50;99.90;;;;;;5012160;28;20033;-54
2023/08/09 04:32:49;;;;;;;6.50;4.55;;;14.60;99.90;;;;;;4998607;28;20033;-55
2023/08/09 04:35:36;;;;;;;8.63;5.10;;;14.60;99.90;;;;;;4998068;28;20042;-58
2023/08/09 04:38:22;;;;;;;8.20;5.18;;;14.60;99.90;;;;;;5011808;28;20030;-58
2023/08/09 04:41:09;;;;;;;6.20;4.80;;;14.60;99.90;;;;;;5010301;28;20042;-56
2023/08/09 04:43:56;;;;;;;5.72;4.57;;;14.50;99.90;;;;;;5010517;28;20084;-57
2023/08/09 04:46:42;;;;;;;6.18;5.35;;;14.50;99.90;;;;;;5000626;28;20030;-58
2023/08/09 04:49:28;;;;;;;5.93;4.40;;;14.60;99.90;;;;;;4999942;28;20034;-56
2023/08/09 04:52:14;;;;;;;7.38;5.00;;;14.30;99.90;;;;;;4997711;28;20018;-59
2023/08/09 04:55:01;;;;;;;4.70;3.38;;;14.10;99.90;;;;;;5003455;28;20026;-57
2023/08/09 04:57:47;;;;;;;5.47;3.67;;;13.70;99.90;;;;;;4996809;28;20033;-57
2023/08/09 05:00:33;;;;;;;6.60;4.30;;;13.70;99.90;;;;;;5011469;28;20497;-58
2023/08/09 05:03:19;;;;;;;4.13;3.50;;;13.80;99.90;;;;;;5011071;28;20033;-59
2023/08/09 05:06:05;;;;;;;4.57;3.28;;;13.90;99.90;;;;;;5011983;28;20030;-57
2023/08/09 05:08:51;;;;;;;5.45;3.97;;;14.00;99.90;;;;;;5012338;28;20026;-58
2023/08/09 05:11:37;;;;;;;4.43;3.60;;;14.10;99.90;;;;;;5005486;28;20394;-57
2023/08/09 05:14:22;;;;;;;5.15;3.70;;;14.20;99.90;;;;;;5011771;28;20029;-59
2023/08/09 05:17:08;;;;;;;6.25;3.83;;;14.30;99.90;;;;;;4997847;28;20030;-58
2023/08/09 05:19:55;;;;;;;5.90;4.03;;;14.40;99.90;;;;;;5012247;28;20128;-59
2023/08/09 05:22:41;;;;;;;4.10;3.47;;;14.50;99.90;;;;;;5011623;28;20025;-59
2023/08/09 05:25:27;;;;;;;5.03;3.55;;;14.60;99.90;;;;;;5011643;28;20057;-58
2023/08/09 05:28:13;;;;;;;4.63;3.72;;;14.60;99.90;;;;;;5011316;28;20022;-59
2023/08/09 05:30:59;;;;;;;4.45;3.90;;;14.70;99.90;;;;;;4983759;28;20026;-57
2023/08/09 05:33:45;;;;;;;4.80;3.65;;;14.80;99.90;;;;;;5010999;28;20446;-57
2023/08/09 05:36:31;;;;;;;5.05;3.72;;;14.80;99.90;;;;;;5004887;28;20026;-59
2023/08/09 05:39:17;;;;;;;5.10;3.70;;;14.90;99.90;;;;;;4993034;28;20144;-59
2023/08/09 05:42:03;;;;;;;6.15;4.07;;;14.90;99.90;;;;;;4992323;28;20034;-54
2023/08/09 05:44:49;;;;;;;5.90;3.67;;;14.90;99.90;;;;;;4992139;28;20035;-59
2023/08/09 05:47:35;;;;;;;4.03;3.63;;;14.90;99.90;;;;;;4991964;28;20117;-57
2023/08/09 05:50:21;;;;;;;4.72;4.07;;;14.80;99.90;;;;;;4991789;28;20031;-59
2023/08/09 05:53:09;;;;;;;6.03;4.57;;;14.80;99.90;;;;;;4992155;28;20041;-59
2023/08/09 05:55:55;;;;;;;6.35;4.88;;;14.70;99.90;;;;;;4978316;28;20077;-57
2023/08/09 05:58:41;;;;;;;4.93;4.03;;;14.60;99.90;;;;;;4991960;28;20097;-58
2023/08/09 06:01:29;;;;;;;6.63;4.07;;;14.70;99.90;;;;;;4991934;28;20097;-56
2023/08/09 06:04:15;;;;;;;5.22;3.80;;;14.80;99.90;;;;;;4991546;28;20486;-58
2023/08/09 06:07:01;;;;;;;5.70;4.30;;;14.80;99.90;;;;;;4994791;28;20042;-57
2023/08/09 06:09:47;;;;;;;6.45;4.45;;;14.70;99.90;;;;;;4996130;28;20157;-58
2023/08/09 06:12:33;;;;;;;4.97;4.40;;;14.70;99.90;;;;;;4981261;28;20077;-58
2023/08/09 06:15:20;;;;;;;7.00;3.95;;;14.80;99.90;;;;;;4995166;28;20105;-57
2023/08/09 06:18:06;;;;;;;5.50;3.72;;;14.80;99.90;;;;;;4994640;28;20088;-59
2023/08/09 06:20:54;;;;;;;7.30;4.05;;;14.80;99.90;;;;;;4981146;28;20109;-58
2023/08/09 06:23:40;;;;;;;9.30;4.22;;;14.80;99.90;;;;;;4980911;28;20022;-59
2023/08/09 06:26:26;;;;;;;4.82;3.78;;;14.90;99.90;;;;;;4995120;28;20049;-59
2023/08/09 06:29:12;;;;;;;5.05;3.78;;;15.00;99.90;;;;;;4994782;28;20026;-56
2023/08/09 06:31:58;;;;;;;4.80;3.35;;;15.30;99.90;;;;;;4995267;28;20037;-58
2023/08/09 06:34:44;;;;;;;4.55;3.60;;;15.40;99.90;;;;;;4995380;28;20034;-56
2023/08/09 06:37:30;;;;;;;5.65;3.38;;;15.40;99.90;;;;;;4980946;28;20030;-57
2023/08/09 06:40:16;;;;;;;8.38;3.50;;;15.50;99.90;;;;;;4967813;28;20041;-56
2023/08/09 06:43:02;;;;;;;3.42;2.95;;;15.50;99.90;;;;;;4995011;28;20042;-58
2023/08/09 06:45:48;;;;;;;4.32;3.65;;;15.50;99.90;;;;;;4994834;28;20411;-57
2023/08/09 06:48:35;;;;;;;5.13;3.67;;;15.70;99.90;;;;;;4980400;28;20113;-57
2023/08/09 06:51:21;;;;;;;5.45;3.47;;;15.70;99.90;;;;;;4994774;28;20430;-56
2023/08/09 06:54:06;;;;;;;4.10;3.20;;;15.60;99.90;;;;;;4981080;28;20034;-59
2023/08/09 06:56:53;;;;;;;4.90;3.85;;;15.60;99.90;;;;;;4994455;28;20123;-58
2023/08/09 06:59:39;;;;;;;3.65;3.17;;;15.80;99.90;;;;;;4994006;28;20026;-58
2023/08/09 07:02:26;;;;;;;4.10;3.10;;;15.80;99.90;;;;;;5012159;28;20030;-59
2023/08/09 07:05:15;;;;;;;6.95;3.42;;;16.00;99.90;;;;;;4995928;28;20037;-58
2023/08/09 07:08:01;;;;;;;4.88;2.67;;;15.70;99.90;;;;;;4993923;28;20018;-54
2023/08/09 07:10:47;;;;;;;4.03;2.95;;;15.70;99.90;;;;;;4994449;28;20556;-58
2023/08/09 07:13:33;;;;;;;3.60;2.90;;;15.70;99.90;;;;;;4994264;28;20444;-59
2023/08/09 07:16:19;;;;;;;5.05;3.10;;;15.70;99.90;;;;;;4993344;28;20511;-57
2023/08/09 07:19:05;;;;;;;6.30;2.90;;;15.60;99.90;;;;;;4995143;28;20077;-57
2023/08/09 07:21:51;;;;;;;4.45;2.90;;;15.70;99.90;;;;;;5001351;28;20450;-58
2023/08/09 07:24:36;;;;;;;4.22;2.90;;;15.80;99.90;;;;;;5001573;28;20538;-58
2023/08/09 07:27:22;;;;;;;4.05;2.78;;;16.00;99.90;;;;;;4993983;28;20022;-57
2023/08/09 07:30:10;;;;;;;5.63;2.90;;;15.90;99.90;;;;;;4993938;28;20022;-59
2023/08/09 07:32:56;;;;;;;7.60;3.67;;;15.70;99.90;;;;;;4994805;28;20030;-51
2023/08/09 07:35:42;;;;;;;6.30;2.95;;;15.70;99.90;;;;;;5011768;28;20108;-51
2023/08/09 07:38:28;;;;;;;6.35;2.90;;;15.90;99.90;;;;;;5011455;28;20104;-56
2023/08/09 07:41:14;;;;;;;5.45;2.65;;;15.90;99.90;;;;;;5011756;28;20033;-56
2023/08/09 07:44:00;;;;;;;7.88;2.70;;;15.90;99.90;;;;;;5011379;28;20034;-58
2023/08/09 07:46:46;;;;;;;4.75;2.78;;;16.00;99.90;;;;;;5011875;28;20032;-58
2023/08/09 07:49:32;;;;;;;5.30;2.70;;;16.00;99.90;;;;;;5012929;28;20084;-52
2023/08/09 07:52:18;;;;;;;4.70;2.88;;;16.10;99.90;;;;;;5011159;28;20568;-55
2023/08/09 07:55:05;;;;;;;8.35;3.97;;;16.00;99.90;;;;;;5011184;28;20022;-55
2023/08/09 07:57:51;;;;;;;6.13;2.67;;;16.00;99.90;;;;;;5010837;28;20034;-58
2023/08/09 08:00:36;;;;;;;4.22;2.70;;;16.20;99.90;;;;;;5012030;28;20137;-59
2023/08/09 08:03:23;;;;;;;5.35;2.88;;;16.40;99.90;;;;;;5012181;28;20027;-58
2023/08/09 08:06:09;;;;;;;7.28;2.92;;;16.50;99.90;;;;;;5011831;28;20495;-57
2023/08/09 08:08:56;;;;;;;4.80;2.63;;;16.20;99.90;;;;;;5010812;28;20713;-59
2023/08/09 08:11:42;;;;;;;3.67;2.40;;;16.10;99.90;;;;;;5006917;28;20495;-55
2023/08/09 08:14:29;;;;;;;5.18;2.50;;;16.00;99.90;;;;;;5008952;28;20030;-59
2023/08/09 08:17:15;;;;;;;5.47;2.60;;;16.10;99.90;;;;;;5008908;28;20032;-56
2023/08/09 08:20:04;;;;;;;4.53;2.45;;;16.20;99.90;;;;;;4993965;28;20038;-57
2023/08/09 08:22:51;;;;;;;4.03;2.45;;;16.40;99.90;;;;;;5007671;28;20121;-50
2023/08/09 08:25:37;;;;;;;4.15;2.53;;;16.70;99.90;;;;;;5009632;28;20034;-57
2023/08/09 08:28:23;;;;;;;5.82;2.72;;;16.70;99.30;;;;;;5009500;28;20034;-58
2023/08/09 08:31:08;;;;;;;6.32;3.15;;;16.70;99.90;;;;;;5007939;28;20510;-57
2023/08/09 08:33:54;;;;;;;3.85;2.70;;;16.70;99.90;;;;;;5008796;28;20030;-57
2023/08/09 08:36:40;;;;;;;7.53;2.50;;;16.90;99.90;;;;;;5009501;28;20079;-55
2023/08/09 08:39:29;;;;;;;5.50;2.40;;;16.80;99.90;;;;;;5003638;28;20026;-55
2023/08/09 08:42:17;;;;;;;4.05;2.70;;;16.80;99.90;;;;;;5009909;28;20029;-51
2023/08/09 08:45:10;;;;;;;4.32;2.50;;;16.70;99.90;;;;;;4998748;28;20510;-53
2023/08/09 08:47:57;;;;;;;3.67;2.25;;;16.80;99.40;;;;;;5010128;28;20041;-54
2023/08/09 08:50:44;;;;;;;3.72;2.40;;;16.90;99.60;;;;;;5008431;28;20113;-56
2023/08/09 08:53:31;;;;;;;3.90;2.58;;;17.20;98.90;;;;;;5009592;28;20180;-53
2023/08/09 08:56:18;;;;;;;2.97;2.33;;;17.20;98.90;;;;;;5010597;28;20041;-57
2023/08/09 08:59:05;;;;;;;6.07;2.58;;;17.00;99.50;;;;;;5009481;28;20561;-56
2023/08/09 09:01:51;;;;;;;5.32;2.50;;;17.20;99.30;;;;;;5010070;28;20041;-54
2023/08/09 09:04:38;;;;;;;7.97;2.40;;;17.30;98.40;;;;;;5010964;28;20029;-54
2023/08/09 09:07:25;;;;;;;4.75;2.35;;;17.30;97.50;;;;;;5008994;28;20340;-56
2023/08/09 09:10:15;;;;;;;5.03;2.17;;;17.40;97.30;;;;;;5010063;28;20395;-54
2023/08/09 09:13:00;;;;;;;5.80;3.25;;;17.60;97.40;;;;;;5011574;28;20451;-56
2023/08/09 09:15:47;;;;;;;6.00;2.67;;;17.90;97.40;;;;;;5009549;28;20115;-54
2023/08/09 09:18:41;;;;;;;7.07;3.00;;;17.90;96.90;;;;;;5010531;28;20117;-57
2023/08/09 09:21:31;;;;;;;5.25;2.60;;;17.70;96.80;;;;;;5009953;28;20090;-51
2023/08/09 09:24:20;;;;;;;8.05;3.15;;;17.70;95.00;;;;;;5010271;28;20040;-56
2023/08/09 09:27:06;;;;;;;5.00;2.25;;;17.60;95.40;;;;;;5010356;28;20034;-54
2023/08/09 09:29:52;;;;;;;6.00;2.63;;;17.70;95.70;;;;;;5009259;28;20026;-56
2023/08/09 09:32:53;;;;;;;4.75;2.63;;;17.90;95.40;;;;;;5010234;28;20076;-52
2023/08/09 09:35:40;;;;;;;4.45;2.22;;;17.90;95.50;;;;;;5010155;28;20037;-53
2023/08/09 09:38:26;;;;;;;6.20;2.20;;;18.00;94.40;;;;;;5007607;28;20030;-52
2023/08/09 09:41:15;;;;;;;6.68;2.75;;;18.10;94.30;;;;;;5013814;28;20042;-52
2023/08/09 09:44:03;;;;;;;3.55;2.33;;;18.20;94.00;;;;;;5015042;28;20483;-52
2023/08/09 09:47:01;;;;;;;4.65;2.58;;;18.30;94.40;;;;;;5012565;28;20029;-55
2023/08/09 09:49:52;;;;;;;6.55;2.45;;;18.00;93.10;;;;;;4999265;28;20026;-50
2023/08/09 09:52:39;;;;;;;7.13;2.60;;;18.10;93.20;;;;;;5013587;28;20026;-53
2023/08/09 09:55:26;;;;;;;4.55;2.65;;;18.40;93.10;;;;;;5015372;28;20097;-54
2023/08/09 09:58:12;;;;;;;3.42;2.25;;;18.50;93.20;;;;;;5012428;28;20022;-53
2023/08/09 10:01:01;;;;;;;7.57;3.10;;;18.50;91.10;;;;;;5011956;28;20363;-55
2023/08/09 10:03:48;;;;;;;3.55;2.20;;;18.20;91.90;;;;;;5016729;28;20029;-52
2023/08/09 10:06:42;;;;;;;4.43;2.38;;;18.20;92.30;;;;;;5014906;28;20021;-55
2023/08/09 10:09:29;;;;;;;3.35;2.20;;;18.50;91.80;;;;;;5015304;28;20034;-53
2023/08/09 10:12:15;;;;;;;5.35;2.20;;;18.90;91.20;;;;;;5015184;28;20076;-52
2023/08/09 10:15:03;;;;;;;3.45;2.00;;;18.70;91.30;;;;;;5015367;28;20133;-54
2023/08/09 10:17:52;;;;;;;3.42;2.25;;;18.70;91.70;;;;;;5014155;28;20036;-56
2023/08/09 10:20:44;;;;;;;4.88;2.75;;;18.40;93.00;;;;;;5010607;28;20465;-55
2023/08/09 10:23:31;;;;;;;5.90;2.42;;;18.20;93.50;;;;;;5014548;28;20057;-52
2023/08/09 10:26:17;;;;;;;4.82;2.35;;;18.00;93.40;;;;;;5014516;28;20403;-56
2023/08/09 10:29:09;;;;;;;4.88;2.40;;;18.00;93.00;;;;;;5013647;28;20164;-58
2023/08/09 10:32:02;;;;;;;6.80;2.75;;;18.20;92.70;;;;;;5014452;28;20029;-54
2023/08/09 10:34:48;;;;;;;3.90;2.38;;;18.60;92.10;;;;;;5013725;28;20044;-52
2023/08/09 10:37:34;;;;;;;5.60;2.50;;;19.00;91.80;;;;;;5014146;28;20030;-49
2023/08/09 10:40:21;;;;;;;4.55;2.20;;;19.50;90.90;;;;;;5013804;28;20057;-47
2023/08/09 10:43:09;;;;;;;2.92;2.30;;;19.60;90.00;;;;;;5013354;28;20569;-50
2023/08/09 10:45:56;;;;;;;4.45;2.50;;;19.60;90.70;;;;;;5014737;28;20069;-64
2023/08/09 10:48:59;;;;;;;3.50;2.20;;;19.30;91.20;;;;;;5014859;28;20049;-54
2023/08/09 10:51:46;;;;;;;4.68;2.25;;;19.10;91.00;;;;;;5012985;28;20084;-47
2023/08/09 10:54:32;;;;;;;4.00;2.35;;;18.90;90.80;;;;;;5013011;28;20022;-55
2023/08/09 10:57:18;;;;;;;5.65;2.55;;;18.70;91.40;;;;;;5013789;28;20042;-54
2023/08/09 11:00:06;;;;;;;4.85;2.25;;;18.60;91.80;;;;;;5014046;28;20041;-54
2023/08/09 11:02:56;;;;;;;5.47;2.45;;;19.00;91.70;;;;;;5012807;28;20113;-55
2023/08/09 11:05:43;;;;;;;4.68;2.20;;;19.50;91.50;;;;;;4980855;28;20037;-55
2023/08/09 11:08:30;;;;;;;4.13;1.98;;;19.70;91.40;;;;;;4995098;28;20106;-52
2023/08/09 11:11:16;;;;;;;4.10;2.30;;;19.80;90.40;;;;;;5013154;28;20013;-50
2023/08/09 11:14:03;;;;;;;4.70;2.28;;;19.80;90.50;;;;;;5033439;28;20030;-50
2023/08/09 11:16:50;;;;;;;4.22;2.30;;;19.60;90.70;;;;;;5032079;28;20029;-52
2023/08/09 11:19:36;;;;;;;3.42;2.42;;;19.90;90.80;;;;;;5017868;28;20099;-52
2023/08/09 11:22:22;;;;;;;4.70;2.58;;;20.00;90.10;;;;;;5033429;28;20064;-50
2023/08/09 11:25:08;;;;;;;4.65;2.22;;;20.00;89.00;;;;;;5033168;28;20117;-51
2023/08/09 11:27:56;;;;;;;5.18;2.30;;;19.80;90.20;;;;;;5032791;28;20041;-51
2023/08/09 11:30:42;;;;;;;4.63;2.13;;;19.80;91.20;;;;;;5019040;28;20550;-54
2023/08/09 11:33:28;;;;;;;4.57;2.50;;;19.70;90.40;;;;;;5018370;28;20075;-53
2023/08/09 11:36:14;;;;;;;3.55;2.03;;;19.70;91.00;;;;;;5032974;28;20056;-55
2023/08/09 11:39:00;;;;;;;3.30;2.47;;;19.70;88.50;;;;;;5019157;28;20454;-51
2023/08/09 11:41:55;;;;;;;4.80;2.40;;;19.80;87.30;;;;;;5014035;28;20088;-50
2023/08/09 11:44:43;;;;;;;;;;;20.20;87.10;;;;;;5013758;28;20038;-56
2023/08/09 11:47:30;;;;;;;3.83;2.15;;;20.20;87.30;;;;;;5013026;28;19951;-47
2023/08/09 11:50:21;;;;;;;2.78;1.90;;;20.20;86.30;;;;;;5013264;28;20104;-52
2023/08/09 11:53:07;;;;;;;6.43;2.17;;;20.20;87.30;;;;;;5012427;28;20066;-51
2023/08/09 11:56:01;;;;;;;3.22;2.58;;;19.90;89.10;;;;;;5013275;28;20081;-51
2023/08/09 11:58:53;;;;;;;4.80;2.20;;;20.10;88.90;;;;;;5012895;28;20037;-52
2023/08/09 12:01:39;;;;;;;3.75;2.03;;;20.10;87.80;;;;;;5012394;28;20030;-52
2023/08/09 12:04:27;;;;;;;4.38;2.53;;;20.20;88.10;;;;;;5012791;28;20029;-53
2023/08/09 12:07:17;;;;;;;3.47;2.25;;;20.10;87.70;;;;;;5011774;28;20025;-49
2023/08/09 12:10:08;;;;;;;4.72;2.00;;;20.00;88.20;;;;;;5012840;28;20034;-52
2023/08/09 12:12:54;;;;;;;4.15;2.00;;;20.20;87.90;;;;;;4998195;28;20018;-53
2023/08/09 12:15:40;;;;;;;4.75;2.15;;;20.50;85.50;;;;;;5012354;28;20402;-54
2023/08/09 12:18:26;;;;;;;4.03;2.00;;;20.60;86.90;;;;;;5012192;28;20089;-49
2023/08/09 12:21:12;;;;;;;3.83;2.30;;;20.50;85.20;;;;;;5012173;28;20034;-51
2023/08/09 12:23:58;;;;;;;4.55;2.30;;;20.30;84.70;;;;;;4997145;28;20030;-55
2023/08/09 12:26:44;;;;;;;3.60;2.20;;;20.50;84.40;;;;;;5011876;28;20030;-55
2023/08/09 12:29:31;;;;;;;2.80;1.85;;;20.60;85.30;;;;;;4996847;28;20030;-55
2023/08/09 12:32:17;;;;;;;2.88;1.98;;;20.60;85.20;;;;;;4998550;28;20014;-53
2023/08/09 12:35:05;;;;;;;5.68;2.72;;;20.80;85.30;;;;;;4998538;28;20022;-49
2023/08/09 12:37:51;;;;;;;3.42;2.10;;;20.90;86.40;;;;;;5011864;28;20160;-53
2023/08/09 12:40:38;;;;;;;4.75;2.35;;;20.90;86.20;;;;;;5011397;28;20117;-52
2023/08/09 12:43:24;;;;;;;3.05;2.00;;;21.30;85.60;;;;;;5011554;28;20107;-49
2023/08/09 12:46:10;;;;;;;3.05;1.90;;;21.50;85.90;;;;;;5011416;28;20033;-57
2023/08/09 12:48:56;;;;;;;2.92;1.90;;;21.50;85.10;;;;;;4998158;28;20041;-54
2023/08/09 12:51:42;;;;;;;4.68;2.10;;;21.50;86.20;;;;;;4998196;28;20033;-54
2023/08/09 12:54:27;;;;;;;5.40;2.33;;;21.40;86.20;;;;;;5011531;28;20073;-55
2023/08/09 12:57:14;;;;;;;3.75;2.30;;;21.20;85.50;;;;;;4997650;28;20025;-56
2023/08/09 13:00:00;;;;;;;2.33;1.98;;;21.40;85.50;;;;;;5011579;28;20463;-54
2023/08/09 13:02:46;;;;;;;4.55;2.17;;;21.30;84.90;;;;;;5011219;28;20503;-54
2023/08/09 13:05:32;;;;;;;3.25;2.05;;;21.20;85.70;;;;;;5011320;28;20034;-50
2023/08/09 13:08:18;;;;;;;3.47;2.58;;;21.40;83.80;;;;;;5010436;28;20030;-53
2023/08/09 13:11:04;;;;;;;2.92;2.05;;;21.50;85.00;;;;;;5019228;28;20071;-51
2023/08/09 13:13:50;;;;;;;3.42;2.40;;;21.80;82.70;;;;;;5013597;28;20027;-57
2023/08/09 13:16:36;;;;;;;5.80;2.70;;;21.90;82.90;;;;;;5011047;28;20084;-49
2023/08/09 13:19:22;;;;;;;4.50;2.55;;;22.10;82.50;;;;;;5011344;28;20057;-46
2023/08/09 13:22:08;;;;;;;3.53;2.45;;;22.30;82.20;;;;;;5010567;28;20061;-50
2023/08/09 13:24:54;;;;;;;3.58;2.08;;;22.50;81.80;;;;;;5011103;28;20117;-46
2023/08/09 13:27:40;;;;;;;4.28;2.22;;;22.60;81.60;;;;;;5010891;28;20402;-49
2023/08/09 13:30:26;;;;;;;3.40;2.17;;;22.50;82.80;;;;;;5010961;28;20021;-52
2023/08/09 13:33:12;;;;;;;4.55;2.28;;;22.90;80.80;;;;;;5010938;28;20018;-46
2023/08/09 13:35:58;;;;;;;3.13;2.40;;;23.10;81.10;;;;;;4991791;28;20427;-49
2023/08/09 13:38:44;;;;;;;4.30;2.30;;;23.30;80.60;;;;;;4990900;28;20022;-48
2023/08/09 13:41:30;;;;;;;5.63;2.40;;;23.20;80.50;;;;;;4991144;28;20045;-52
2023/08/09 13:44:16;;;;;;;4.25;2.17;;;23.00;81.40;;;;;;4990868;28;20038;-48
2023/08/09 13:47:02;;;;;;;2.65;2.05;;;23.00;81.30;;;;;;4990929;28;20046;-60
2023/08/09 13:49:48;;;;;;;4.03;2.38;;;22.80;81.00;;;;;;4991176;28;20030;-58
2023/08/09 13:52:34;;;;;;;3.53;2.20;;;22.90;80.90;;;;;;4991539;28;20030;-60
2023/08/09 13:55:20;;;;;;;5.60;2.25;;;22.70;81.60;;;;;;4990919;28;20026;-55
2023/08/09 13:58:06;;;;;;;3.97;2.33;;;23.00;82.60;;;;;;4990631;28;20607;-61
2023/08/09 14:00:52;;;;;;;2.88;1.83;;;23.20;80.30;;;;;;4990795;28;20030;-59
2023/08/09 14:03:38;;;;;;;3.70;2.00;;;23.40;76.90;;;;;;4977380;28;20088;-58
2023/08/09 14:06:25;;;;;;;6.47;2.35;;;23.40;78.10;;;;;;5010262;28;20042;-57
2023/08/09 14:09:13;;;;;;;4.05;2.33;;;23.50;79.90;;;;;;5010942;28;20109;-59
2023/08/09 14:11:59;;;;;;;2.95;2.17;;;23.80;79.90;;;;;;5026412;28;20025;-59
2023/08/09 14:14:45;;;;;;;3.55;2.30;;;23.90;78.00;;;;;;5031378;28;20107;-57
2023/08/09 14:17:30;;;;;;;2.67;1.80;;;23.50;77.20;;;;;;5030997;28;20064;-60
2023/08/09 14:20:17;;;;;;;3.10;2.10;;;23.30;78.90;;;;;;5017466;28;20053;-58
2023/08/09 14:23:04;;;;;;;5.20;2.90;;;22.60;79.80;;;;;;5015789;28;20095;-60
2023/08/09 14:25:50;;;;;;;3.03;2.25;;;22.30;79.30;;;;;;5031263;28;20029;-59
2023/08/09 14:28:37;;;;;;;3.33;2.25;;;22.10;80.60;;;;;;5034039;28;20394;-59